Corte Madera, CA

11:02 PM PDT on October 24, 2014 (GMT -0700)
Horse Hill | Change Station
CLOSE
Current Station
Personal Weather Station
Location: Mill Valley, CA
Elevation: 20 ft
Nearby Weather Stations

Elev 20 ft 37.91 °N, 122.52 °W | Updated 3 minutes ago

Mostly Cloudy
Mostly Cloudy
63.2 °F
Feels Like 63.2 °F
N
0.0
Wind Variable Wind from NNW
Gusts 0.0 mph

Today
High -- | Low -- °F
--% Chance of Precip.
Yesterday
High -- | Low -- °F
Precip. -- in
7:27 AM 6:20 PM
New Moon, 2% visible
Pressure 29.93 in
Visibility 10.0 miles
Clouds Few 1500 ft
Scattered Clouds 2000 ft
Mostly Cloudy 20000 ft
Dew Point 57 °F
Humidity 79%
Rainfall 0.00 in
Snow Depth Not available.
UV 0.0 out of 12
Pollen 2.60 out of 12
Ozone Good
PM2.5 Good
Flu Activity Sporadic
METAR KOAK 250553Z 17012KT 10SM FEW015 SCT020 BKN200 18/12 A2993 RMK AO2 SLP135 T01830122 10194 20183 53012

More Conditions Fewer Conditions

Pressure 29.93 in
Visibility 10.0 miles
Clouds Few 1500 ft
Scattered Clouds 2000 ft
Mostly Cloudy 20000 ft
Dew Point 57 °F
Humidity 79%
Rainfall 0.00 in
Snow Depth Not available.
UV 0.0 out of 12
Pollen 2.60 out of 12
Ozone Good
PM2.5 Good
Flu Activity Sporadic
METAR KOAK 250553Z 17012KT 10SM FEW015 SCT020 BKN200 18/12 A2993 RMK AO2 SLP135 T01830122 10194 20183 53012

More Conditions Fewer Conditions

10-Day Weather Forecast

Almanac

Astronomy

Oct. 24, 2014 Rise Set
Actual Time 7:27 AM PDT 6:20 PM PDT
Civil Twilight 7:00 AM PDT 6:47 PM PDT
Nautical Twilight 6:29 AM PDT 7:17 PM PDT
Astronomical Twilight 5:59 AM PDT 7:48 PM PDT
Moon 8:11 AM PDT (10/24) 7:05 PM PDT (10/24)
Length of Visible Light 11h 46m
Length of Day
10h 52m
Tomorrow will be 2m 15s shorter.
New Moon, 2% of the Moon is Illuminated
Oct 25
New Moon
Oct 30
First Quarter
Nov 6
Full
Nov 14
Last Quarter
Nov 22
New

Yesterday's Extremes

State Highs State Lows

Community

WunderPhotos

Upload Photos

1,764,785 photos uploaded!

Nearby

Air Quality

  Air Quality AQ Index Pollutant
Yesterday Good
PM2.5
Yesterday Good
OZONE
Current Good
OZONE
Current Good
PM2.5
Friday Good
PM2.5
Saturday Good
OZONE
Sunday Moderate
PM2.5
Monday Moderate
PM2.5
Tuesday Moderate
PM2.5
Wednesday Moderate
PM2.5

Snow Depth

Station Depth Elevation
Echo Peak 1 in 7800 ft
Blue Lakes 0 in 8000 ft
Rubicon #2 1 in 7500 ft
Squaw Valley 0 in 8200 ft
Burnside Lake 1 in 8139 ft

Earthquake Activity

City Distance Mag. Time & Date
No recent earthquake activity has been reported nearby.
Minimum magnitude displayed is 2.5.

Coastal Water Temperatures

Place Temperature
San Francisco, CA 64.0 °F
Richmond, CA 64.9 °F
Port Chicago, CA 66.0 °F

Nearby Weather Stations